createdAt,value
2018-11-11T00:01:32.184Z,12.13
2018-11-11T00:04:06.778Z,12.43
2018-11-11T00:06:41.015Z,16.27
2018-11-11T00:09:15.277Z,14.70
2018-11-11T00:11:49.537Z,14.13
2018-11-11T00:14:23.807Z,13.57
2018-11-11T00:16:58.040Z,12.97
2018-11-11T00:19:32.321Z,16.97
2018-11-11T00:22:06.742Z,15.13
2018-11-11T00:24:40.993Z,12.47
2018-11-11T00:27:15.269Z,13.43
2018-11-11T00:29:49.562Z,12.60
2018-11-11T00:32:23.865Z,13.63
2018-11-11T00:34:58.533Z,11.37
2018-11-11T00:37:32.827Z,14.50
2018-11-11T00:40:07.248Z,13.73
2018-11-11T00:42:41.579Z,14.77
2018-11-11T00:45:16.481Z,14.23
2018-11-11T00:47:50.738Z,13.67
2018-11-11T00:50:25.013Z,15.40
2018-11-11T00:52:59.281Z,14.77
2018-11-11T00:55:39.146Z,15.30
2018-11-11T00:58:13.539Z,13.03
2018-11-11T01:00:47.887Z,16.20
2018-11-11T01:03:22.136Z,17.60
2018-11-11T01:05:56.405Z,14.10
2018-11-11T01:08:30.697Z,15.50
2018-11-11T01:11:04.996Z,15.63
2018-11-11T01:13:39.404Z,13.70
2018-11-11T01:16:13.660Z,14.73
2018-11-11T01:18:47.945Z,14.67
2018-11-11T01:21:22.222Z,13.37
2018-11-11T01:23:56.467Z,15.13
2018-11-11T01:26:30.744Z,14.33
2018-11-11T01:29:05.306Z,15.93
2018-11-11T01:31:39.609Z,15.63
2018-11-11T01:34:13.883Z,13.93
2018-11-11T01:36:48.168Z,13.57
2018-11-11T01:39:22.457Z,15.20
2018-11-11T01:41:56.830Z,12.70
2018-11-11T01:44:31.090Z,13.43
2018-11-11T01:47:05.476Z,18.60
2018-11-11T01:49:39.765Z,18.90
2018-11-11T01:52:14.050Z,17.57
2018-11-11T01:54:48.321Z,17.70
2018-11-11T01:57:22.664Z,15.83
2018-11-11T01:59:56.913Z,14.60
2018-11-11T02:02:31.238Z,16.63
2018-11-11T02:05:06.727Z,15.30
2018-11-11T02:07:42.033Z,15.43
2018-11-11T02:10:16.334Z,15.27
2018-11-11T02:12:50.585Z,15.37
2018-11-11T02:15:24.855Z,17.60
2018-11-11T02:17:59.121Z,15.40
2018-11-11T02:20:33.358Z,14.37
2018-11-11T02:23:07.636Z,14.27
2018-11-11T02:25:41.907Z,17.30
2018-11-11T02:28:16.187Z,17.03
2018-11-11T02:30:50.446Z,16.37
2018-11-11T02:33:24.719Z,18.27
2018-11-11T02:35:59.025Z,17.67
2018-11-11T02:38:33.306Z,18.33
2018-11-11T02:41:08.047Z,18.20
2018-11-11T02:43:42.308Z,17.70
2018-11-11T02:46:16.577Z,16.67
2018-11-11T02:48:50.847Z,14.80
2018-11-11T02:51:25.094Z,16.10
2018-11-11T02:53:59.403Z,16.77
2018-11-11T02:56:33.671Z,18.90
2018-11-11T02:59:08.641Z,18.90
2018-11-11T03:01:42.882Z,17.70
2018-11-11T03:04:17.288Z,19.10
2018-11-11T03:06:51.514Z,19.63
2018-11-11T03:09:25.762Z,17.33
2018-11-11T03:12:00.003Z,15.13
2018-11-11T03:14:34.268Z,18.10
2018-11-11T03:17:08.579Z,18.77
2018-11-11T03:19:42.846Z,17.03
2018-11-11T03:22:17.082Z,20.83
2018-11-11T03:24:51.353Z,22.37
2018-11-11T03:27:25.659Z,19.80
2018-11-11T03:29:59.963Z,20.17
2018-11-11T03:32:34.195Z,17.10
2018-11-11T03:35:10.032Z,21.50
2018-11-11T03:37:45.062Z,18.73
2018-11-11T03:40:20.388Z,19.40
2018-11-11T03:42:54.630Z,19.00
2018-11-11T03:45:28.929Z,17.93
2018-11-11T03:48:03.229Z,19.67
2018-11-11T03:50:37.493Z,21.70
2018-11-11T03:53:11.763Z,19.63
2018-11-11T03:55:46.021Z,20.93
2018-11-11T03:58:20.275Z,22.33
2018-11-11T04:00:54.670Z,23.57
2018-11-11T04:03:28.921Z,21.70
2018-11-11T04:06:03.186Z,23.33
2018-11-11T04:08:37.439Z,21.53
2018-11-11T04:11:11.690Z,21.83
2018-11-11T04:13:45.983Z,21.03
2018-11-11T04:16:20.238Z,23.10
2018-11-11T04:18:54.493Z,21.57
2018-11-11T04:21:28.837Z,21.60
2018-11-11T04:24:03.087Z,19.40
2018-11-11T04:26:37.389Z,19.17
2018-11-11T04:29:11.656Z,20.17
2018-11-11T04:31:45.925Z,20.33
2018-11-11T04:34:20.148Z,22.13
2018-11-11T04:36:54.403Z,21.83
2018-11-11T04:39:28.655Z,22.50
2018-11-11T04:42:03.029Z,23.43
2018-11-11T04:44:37.300Z,23.03
2018-11-11T04:47:11.545Z,25.20
2018-11-11T04:49:45.783Z,24.07
2018-11-11T04:52:20.045Z,22.20
2018-11-11T04:54:54.303Z,22.40
2018-11-11T04:57:28.557Z,22.77
2018-11-11T05:00:02.867Z,24.03
2018-11-11T05:02:37.138Z,23.60
2018-11-11T05:05:12.571Z,24.33
2018-11-11T05:07:47.071Z,22.17
2018-11-11T05:10:21.310Z,21.13
2018-11-11T05:12:55.571Z,20.97
2018-11-11T05:15:29.826Z,21.93
2018-11-11T05:18:04.147Z,22.00
2018-11-11T05:20:38.434Z,21.23
2018-11-11T05:23:12.754Z,23.67
2018-11-11T05:25:47.037Z,25.90
2018-11-11T05:28:21.318Z,23.90
2018-11-11T05:30:55.574Z,24.83
2018-11-11T05:33:29.851Z,25.37
2018-11-11T05:36:04.155Z,26.07
2018-11-11T05:38:38.410Z,26.77
2018-11-11T05:41:12.694Z,25.50
2018-11-11T05:43:46.979Z,25.87
2018-11-11T05:46:21.347Z,24.57
2018-11-11T05:48:55.638Z,24.17
2018-11-11T05:51:29.973Z,28.93
2018-11-11T05:54:04.423Z,26.67
2018-11-11T05:56:38.666Z,26.13
2018-11-11T05:59:12.946Z,26.13
2018-11-11T06:01:47.241Z,34.13
2018-11-11T06:04:21.487Z,31.97
2018-11-11T06:06:55.745Z,28.53
2018-11-11T06:09:30.006Z,27.23
2018-11-11T06:12:04.263Z,27.53
2018-11-11T06:14:38.530Z,28.57
2018-11-11T06:17:12.797Z,29.13
2018-11-11T06:19:47.061Z,28.03
2018-11-11T06:22:21.313Z,26.70
2018-11-11T06:24:55.589Z,30.43
2018-11-11T06:27:29.863Z,23.83
2018-11-11T06:30:04.329Z,21.40
2018-11-11T06:32:38.597Z,21.70
2018-11-11T06:35:12.890Z,22.27
2018-11-11T06:37:47.150Z,21.33
2018-11-11T06:40:21.469Z,19.40
2018-11-11T06:42:55.774Z,18.73
2018-11-11T06:45:30.045Z,21.23
2018-11-11T06:48:04.428Z,21.37
2018-11-11T06:50:38.629Z,20.57
2018-11-11T06:53:12.893Z,22.60
2018-11-11T06:55:47.209Z,20.80
2018-11-11T06:58:21.481Z,23.67
2018-11-11T07:00:55.751Z,22.30
2018-11-11T07:04:00.294Z,23.10
2018-11-11T07:06:34.555Z,22.33
2018-11-11T07:09:08.801Z,22.00
2018-11-11T07:11:43.058Z,25.07
2018-11-11T07:14:17.358Z,21.80
2018-11-11T07:16:51.616Z,22.73
2018-11-11T07:19:25.862Z,23.70
2018-11-11T07:22:00.105Z,21.90
2018-11-11T07:24:34.370Z,21.40
2018-11-11T07:27:08.658Z,22.13
2018-11-11T07:29:43.264Z,20.13
2018-11-11T07:32:17.515Z,23.00
2018-11-11T07:34:51.763Z,23.07
2018-11-11T07:37:26.017Z,25.20
2018-11-11T07:40:00.339Z,22.63
2018-11-11T07:42:34.698Z,25.20
2018-11-11T07:45:08.896Z,22.93
2018-11-11T07:47:43.225Z,23.10
2018-11-11T07:50:17.451Z,26.27
2018-11-11T07:52:51.744Z,24.13
2018-11-11T07:55:25.965Z,25.53
2018-11-11T07:58:00.226Z,25.83
2018-11-11T08:00:34.487Z,23.00
2018-11-11T08:03:08.797Z,26.93
2018-11-11T08:05:43.060Z,25.70
2018-11-11T08:08:17.314Z,26.23
2018-11-11T08:11:02.703Z,27.73
2018-11-11T08:13:37.201Z,25.97
2018-11-11T08:16:11.490Z,40.83
2018-11-11T08:18:48.704Z,58.97
2018-11-11T08:21:22.963Z,37.93
2018-11-11T08:23:57.214Z,28.57
2018-11-11T08:26:31.459Z,31.27
2018-11-11T08:29:05.902Z,26.90
2018-11-11T08:31:40.431Z,27.60
2018-11-11T08:34:14.882Z,25.67
2018-11-11T08:36:49.204Z,26.73
2018-11-11T08:39:23.459Z,27.50
2018-11-11T08:41:57.742Z,27.40
2018-11-11T08:44:31.997Z,30.43
2018-11-11T08:47:06.322Z,26.23
2018-11-11T08:49:40.593Z,29.13
2018-11-11T08:52:14.865Z,26.30
2018-11-11T08:54:49.590Z,27.40
2018-11-11T08:57:23.846Z,30.33
2018-11-11T08:59:58.154Z,27.63
2018-11-11T09:02:32.422Z,28.60
2018-11-11T09:05:06.945Z,28.50
2018-11-11T09:07:41.197Z,29.63
2018-11-11T09:10:15.470Z,27.10
2018-11-11T09:12:49.769Z,24.10
2018-11-11T09:15:24.321Z,27.63
2018-11-11T09:17:58.577Z,28.03
2018-11-11T09:20:32.902Z,25.63
2018-11-11T09:23:07.186Z,25.00
2018-11-11T09:25:41.579Z,25.10
2018-11-11T09:28:15.901Z,28.50
2018-11-11T09:30:50.210Z,26.53
2018-11-11T09:33:25.535Z,24.27
2018-11-11T09:35:59.928Z,25.67
2018-11-11T09:38:34.394Z,26.10
2018-11-11T09:41:09.556Z,25.13
2018-11-11T09:43:44.008Z,26.80
2018-11-11T09:46:18.411Z,27.67
2018-11-11T09:48:52.729Z,30.10
2018-11-11T09:51:27.045Z,26.33
2018-11-11T09:54:01.385Z,27.60
2018-11-11T09:56:35.601Z,27.33
2018-11-11T09:59:10.359Z,26.33
2018-11-11T10:01:44.877Z,25.90
2018-11-11T10:04:24.439Z,29.50
2018-11-11T10:07:17.076Z,28.10
2018-11-11T10:09:57.791Z,28.90
2018-11-11T10:12:44.864Z,27.87
2018-11-11T10:15:24.701Z,26.50
2018-11-11T10:19:03.877Z,29.63
2018-11-11T10:23:48.097Z,27.67
2018-11-11T10:26:26.773Z,28.90
2018-11-11T10:30:05.109Z,29.87
2018-11-11T10:33:01.071Z,27.07
2018-11-11T10:35:39.773Z,28.27
2018-11-11T10:38:18.909Z,27.10
2018-11-11T10:41:03.276Z,27.90
2018-11-11T10:43:41.518Z,30.00
2018-11-11T10:46:22.229Z,29.23
2018-11-11T10:49:00.712Z,26.50
2018-11-11T10:51:35.465Z,29.00
2018-11-11T10:54:09.867Z,31.43
2018-11-11T10:56:48.043Z,27.83
2018-11-11T10:59:22.488Z,27.93
2018-11-11T11:02:02.138Z,29.57
2018-11-11T11:04:40.657Z,30.40
2018-11-11T11:07:15.068Z,29.37
2018-11-11T11:09:49.965Z,28.70
2018-11-11T11:12:24.328Z,30.37
2018-11-11T11:14:58.711Z,28.13
2018-11-11T11:17:33.062Z,25.77
2018-11-11T11:20:07.892Z,27.63
2018-11-11T11:22:42.250Z,28.00
2018-11-11T11:25:16.561Z,27.67
2018-11-11T11:27:50.868Z,29.27
2018-11-11T11:30:25.246Z,27.43
2018-11-11T11:32:59.503Z,28.13
2018-11-11T11:35:33.811Z,26.17
2018-11-11T11:38:08.154Z,26.60
2018-11-11T11:40:42.446Z,31.13
2018-11-11T11:43:16.693Z,27.67
2018-11-11T11:45:50.959Z,24.03
2018-11-11T11:48:25.229Z,24.37
2018-11-11T11:50:59.562Z,22.60
2018-11-11T11:53:33.825Z,24.03
2018-11-11T11:56:08.085Z,26.20
2018-11-11T11:58:42.338Z,25.90
2018-11-11T12:01:16.605Z,23.93
2018-11-11T12:03:50.898Z,23.40
2018-11-11T12:06:25.233Z,21.53
2018-11-11T12:08:59.569Z,21.83
2018-11-11T12:11:33.757Z,24.37
2018-11-11T12:14:08.194Z,25.10
2018-11-11T12:16:42.535Z,23.70
2018-11-11T12:19:22.167Z,20.67
2018-11-11T12:21:56.421Z,23.00
2018-11-11T12:24:30.749Z,22.10
2018-11-11T12:27:05.505Z,26.40
2018-11-11T12:29:39.827Z,21.83
2018-11-11T12:32:14.209Z,21.47
2018-11-11T12:34:48.526Z,20.73
2018-11-11T12:37:22.881Z,22.07
2018-11-11T12:39:57.230Z,21.43
2018-11-11T12:42:31.387Z,23.03
2018-11-11T12:45:06.715Z,21.50
2018-11-11T12:47:40.970Z,22.67
2018-11-11T12:50:15.375Z,21.97
2018-11-11T12:52:49.638Z,21.20
2018-11-11T12:55:23.960Z,19.90
2018-11-11T12:57:58.259Z,21.60
2018-11-11T13:00:32.556Z,18.63
2018-11-11T13:03:06.865Z,18.47
2018-11-11T13:05:41.113Z,18.47
2018-11-11T13:08:15.393Z,17.33
2018-11-11T13:10:49.662Z,19.17
2018-11-11T13:13:23.927Z,19.63
2018-11-11T13:15:58.269Z,19.40
2018-11-11T13:18:32.977Z,21.20
2018-11-11T13:21:07.364Z,20.00
2018-11-11T13:23:50.053Z,20.20
2018-11-11T13:26:24.342Z,20.07
2018-11-11T13:28:58.650Z,61.17
2018-11-11T13:31:32.918Z,44.53
2018-11-11T13:34:07.210Z,31.07
2018-11-11T13:36:41.573Z,28.87
2018-11-11T13:39:15.857Z,21.63
2018-11-11T13:41:50.137Z,24.27
2018-11-11T13:44:24.519Z,22.93
2018-11-11T13:46:59.309Z,22.67
2018-11-11T13:49:33.603Z,21.80
2018-11-11T13:52:07.874Z,21.17
2018-11-11T13:54:42.159Z,22.33
2018-11-11T13:57:16.413Z,21.50
2018-11-11T13:59:50.708Z,18.87
2018-11-11T14:02:24.954Z,18.80
2018-11-11T14:04:59.306Z,19.70
2018-11-11T14:07:33.562Z,19.27
2018-11-11T14:10:09.350Z,18.80
2018-11-11T14:12:43.623Z,17.07
2018-11-11T14:15:20.448Z,18.87
2018-11-11T14:17:55.506Z,18.93
2018-11-11T14:20:29.791Z,21.30
2018-11-11T14:23:04.018Z,16.23
2018-11-11T14:25:38.306Z,19.67
2018-11-11T14:28:12.681Z,14.57
2018-11-11T14:30:46.996Z,17.30
2018-11-11T14:33:22.666Z,18.07
2018-11-11T14:35:56.921Z,18.83
2018-11-11T14:38:31.240Z,19.97
2018-11-11T14:41:05.945Z,18.43
2018-11-11T14:43:40.243Z,15.50
2018-11-11T14:46:14.596Z,17.63
2018-11-11T14:48:48.864Z,20.13
2018-11-11T14:51:23.206Z,21.83
2018-11-11T14:53:57.465Z,20.40
2018-11-11T14:56:31.988Z,18.37
2018-11-11T14:59:06.281Z,21.17
2018-11-11T15:01:40.601Z,24.80
2018-11-11T15:04:15.026Z,27.23
2018-11-11T15:06:49.345Z,28.13
2018-11-11T15:09:23.758Z,29.47
2018-11-11T15:12:06.411Z,28.30
2018-11-11T15:14:40.807Z,29.30
2018-11-11T15:17:15.262Z,28.97
2018-11-11T15:19:49.679Z,28.17
2018-11-11T15:22:27.006Z,26.47
2018-11-11T15:25:03.403Z,29.37
2018-11-11T15:27:37.970Z,25.83
2018-11-11T15:33:36.026Z,26.10
2018-11-11T15:36:11.547Z,24.13
2018-11-11T15:38:45.796Z,26.53
2018-11-11T15:41:20.241Z,26.80
2018-11-11T15:43:54.495Z,25.53
2018-11-11T15:46:28.769Z,25.53
2018-11-11T15:49:03.282Z,27.43
2018-11-11T15:51:38.416Z,28.77
2018-11-11T15:54:13.410Z,28.93
2018-11-11T15:56:47.701Z,28.37
2018-11-11T15:59:22.029Z,31.53
2018-11-11T16:01:56.255Z,32.50
2018-11-11T16:04:30.553Z,31.03
2018-11-11T16:07:04.838Z,29.63
2018-11-11T16:09:39.141Z,30.07
2018-11-11T16:12:13.414Z,34.30
2018-11-11T16:14:47.679Z,31.20
2018-11-11T16:17:21.936Z,31.20
2018-11-11T16:19:56.344Z,32.70
2018-11-11T16:22:30.482Z,29.33
2018-11-11T16:25:05.323Z,31.43
2018-11-11T16:27:40.620Z,31.03
2018-11-11T16:30:20.014Z,30.03
2018-11-11T16:32:55.110Z,34.17
2018-11-11T16:35:30.141Z,33.10
2018-11-11T16:38:04.648Z,31.60
2018-11-11T16:40:39.382Z,29.43
2018-11-11T16:43:13.737Z,31.23
2018-11-11T16:45:48.016Z,30.13
2018-11-11T16:48:35.745Z,30.53
2018-11-11T16:51:10.159Z,33.47
2018-11-11T16:53:44.407Z,31.70
2018-11-11T16:56:18.753Z,30.13
2018-11-11T16:58:53.102Z,32.50
2018-11-11T17:01:31.289Z,32.77
2018-11-11T17:04:05.753Z,34.37
2018-11-11T17:06:40.058Z,35.67
2018-11-11T17:09:14.906Z,34.40
2018-11-11T17:11:49.171Z,42.67
2018-11-11T17:14:24.061Z,41.63
2018-11-11T17:16:58.421Z,36.03
2018-11-11T17:19:32.673Z,34.60
2018-11-11T17:22:07.250Z,33.67
2018-11-11T17:24:41.626Z,34.17
2018-11-11T17:27:15.930Z,35.43
2018-11-11T17:29:50.277Z,39.20
2018-11-11T17:32:24.597Z,34.43
2018-11-11T17:34:58.766Z,40.33
2018-11-11T17:37:33.029Z,31.90
2018-11-11T17:40:10.018Z,33.73
2018-11-11T17:42:45.561Z,35.70
2018-11-11T17:45:20.045Z,33.53
2018-11-11T17:47:54.512Z,32.77
2018-11-11T17:50:31.140Z,36.17
2018-11-11T17:53:06.346Z,34.30
2018-11-11T17:55:40.661Z,29.67
2018-11-11T17:58:14.971Z,29.70
2018-11-11T18:00:49.252Z,31.33
2018-11-11T18:03:23.595Z,33.17
2018-11-11T18:05:57.853Z,30.83
2018-11-11T18:08:32.227Z,29.73
2018-11-11T18:11:06.515Z,32.20
2018-11-11T18:13:40.793Z,32.43
2018-11-11T18:16:15.128Z,35.03
2018-11-11T18:18:49.419Z,31.30
2018-11-11T18:21:23.695Z,30.23
2018-11-11T18:23:58.067Z,32.03
2018-11-11T18:26:32.509Z,32.30
2018-11-11T18:29:06.774Z,32.37
2018-11-11T18:31:41.063Z,31.73
2018-11-11T18:34:15.380Z,33.90
2018-11-11T18:36:49.859Z,33.00
2018-11-11T18:39:25.241Z,31.57
2018-11-11T18:41:59.535Z,30.70
2018-11-11T18:44:33.802Z,31.57
2018-11-11T18:47:08.096Z,29.30
2018-11-11T18:49:42.397Z,32.43
2018-11-11T18:52:16.697Z,33.07
2018-11-11T18:54:50.995Z,29.50
2018-11-11T18:57:25.367Z,32.23
2018-11-11T18:59:59.568Z,28.87
2018-11-11T19:02:33.875Z,30.87
2018-11-11T19:05:09.662Z,31.90
2018-11-11T19:07:44.131Z,35.23
2018-11-11T19:10:20.597Z,32.87
2018-11-11T19:12:56.395Z,28.97
2018-11-11T19:15:30.789Z,29.23
2018-11-11T19:18:05.499Z,27.73
2018-11-11T19:20:39.863Z,28.67
2018-11-11T19:23:14.182Z,31.27
2018-11-11T19:25:48.538Z,28.33
2018-11-11T19:28:22.847Z,34.20
2018-11-11T19:30:57.120Z,31.20
2018-11-11T19:33:31.463Z,32.80
2018-11-11T19:36:05.793Z,32.57
2018-11-11T19:38:40.154Z,48.43
2018-11-11T19:41:14.668Z,38.03
2018-11-11T19:43:48.958Z,66.87
2018-11-11T19:46:23.263Z,32.33
2018-11-11T19:48:57.536Z,40.93
2018-11-11T19:51:31.826Z,45.13
2018-11-11T19:54:06.179Z,39.57
2018-11-11T19:56:40.576Z,36.13
2018-11-11T19:59:14.864Z,37.60
2018-11-11T20:01:49.141Z,40.07
2018-11-11T20:04:23.485Z,38.20
2018-11-11T20:06:57.857Z,33.37
2018-11-11T20:09:32.125Z,37.10
2018-11-11T20:12:06.379Z,29.23
2018-11-11T20:14:40.646Z,30.37
2018-11-11T20:17:14.901Z,33.73
2018-11-11T20:19:49.171Z,29.40
2018-11-11T20:22:23.448Z,34.50
2018-11-11T20:24:57.710Z,29.03
2018-11-11T20:27:31.994Z,30.07
2018-11-11T20:30:09.313Z,28.80
2018-11-11T20:32:43.737Z,32.43
2018-11-11T20:35:20.247Z,32.97
2018-11-11T20:37:54.470Z,32.47
2018-11-11T20:40:29.125Z,30.60
2018-11-11T20:43:03.427Z,30.30
2018-11-11T20:45:37.674Z,25.80
2018-11-11T20:48:11.963Z,28.83
2018-11-11T20:50:47.331Z,26.63
2018-11-11T20:53:21.702Z,28.30
2018-11-11T20:55:56.919Z,27.53
2018-11-11T20:58:31.182Z,27.10
2018-11-11T21:01:05.717Z,30.40
2018-11-11T21:03:40.614Z,29.60
2018-11-11T21:06:14.869Z,26.93
2018-11-11T21:08:49.161Z,24.90
2018-11-11T21:11:23.484Z,29.93
2018-11-11T21:13:57.790Z,31.27
2018-11-11T21:16:32.058Z,27.83
2018-11-11T21:19:07.055Z,27.23
2018-11-11T21:21:41.387Z,29.97
2018-11-11T21:24:15.765Z,30.40
2018-11-11T21:26:50.372Z,31.50
2018-11-11T21:29:24.867Z,32.27
2018-11-11T21:31:59.392Z,31.47
2018-11-11T21:34:33.680Z,31.63
2018-11-11T21:37:07.953Z,37.33
2018-11-11T21:39:42.254Z,40.80
2018-11-11T21:42:16.528Z,34.57
2018-11-11T21:44:50.859Z,41.97
2018-11-11T21:47:25.057Z,38.07
2018-11-11T21:49:59.323Z,46.90
2018-11-11T21:52:33.614Z,49.10
2018-11-11T21:55:08.178Z,40.67
2018-11-11T21:57:42.715Z,45.77
2018-11-11T22:00:17.446Z,44.80
2018-11-11T22:02:51.729Z,41.70
2018-11-11T22:05:26.054Z,38.50
2018-11-11T22:08:00.278Z,38.27
2018-11-11T22:10:34.593Z,39.37
2018-11-11T22:13:08.881Z,37.80
2018-11-11T22:15:43.187Z,42.70
2018-11-11T22:18:17.711Z,40.37
2018-11-11T22:20:52.109Z,36.77
2018-11-11T22:23:26.389Z,35.73
2018-11-11T22:26:00.655Z,41.93
2018-11-11T22:28:34.937Z,36.80
2018-11-11T22:31:09.439Z,36.37
2018-11-11T22:33:43.689Z,43.10
2018-11-11T22:36:17.933Z,45.03
2018-11-11T22:38:52.178Z,38.90
2018-11-11T22:41:26.477Z,38.23
2018-11-11T22:44:00.788Z,36.40
2018-11-11T22:46:35.044Z,40.17
2018-11-11T22:49:09.269Z,32.47
2018-11-11T22:51:43.526Z,33.97
2018-11-11T22:54:17.803Z,38.37
2018-11-11T22:56:52.133Z,35.70
2018-11-11T22:59:26.408Z,36.23
2018-11-11T23:02:00.702Z,35.17
2018-11-11T23:04:34.970Z,36.73
2018-11-11T23:07:09.285Z,32.17
2018-11-11T23:09:43.602Z,33.07
2018-11-11T23:12:17.974Z,42.40
2018-11-11T23:14:52.266Z,35.93
2018-11-11T23:17:26.548Z,37.23
2018-11-11T23:20:00.812Z,40.53
2018-11-11T23:22:35.107Z,37.17
2018-11-11T23:25:11.318Z,40.37
2018-11-11T23:27:45.617Z,43.90
2018-11-11T23:30:21.131Z,44.90
2018-11-11T23:32:55.401Z,38.43
2018-11-11T23:35:29.641Z,39.20
2018-11-11T23:38:03.961Z,44.00
2018-11-11T23:40:38.234Z,45.87
2018-11-11T23:43:12.506Z,48.03
2018-11-11T23:45:46.790Z,47.87
2018-11-11T23:48:21.066Z,47.30
2018-11-11T23:50:55.326Z,44.23
2018-11-11T23:53:29.613Z,40.53
2018-11-11T23:56:03.881Z,41.87
2018-11-11T23:58:38.131Z,44.03
